Terminal Aerodrome Forecast
Issued by NWS

Home | Current Version | Previous Version | Text Only | Print | Product List | Glossary On
Versions: 1 2 3 4 5 6 7 8 9 10 11 12 13 14 15 16
934
FTUS42 KMLB 280012 AAA
TAFTIX
TAF AMD
KTIX 280012Z 2800/2824 16007KT P6SM SCT025 BKN050 OVC250
      TEMPO 2800/2801 5SM SHRA BKN035
     FM280300 20004KT P6SM SCT030 SCT120 BKN250
     FM281500 23006KT P6SM SCT035
     FM281900 15009KT P6SM VCTS SCT040CB
      AMD NOT SKED 2801/2811=

USA.gov is the U.S. government's official web portal to all federal, state and local government web resources and services.